Weather at Marki Airfield

Public forecast

Using degrees Celsius for public forecast. Weather courtesy of forecast.io.

Closest aviation weather report (METAR) to Marki Airfield

Closest report is Ercan International Airport, 12.3 nm (22.8 km) NE. Retrieved 2021/04/20 13:20 UTC (13 minutes ago):

LCEN 201320Z 29022KT 9999 FEW025 25/03 Q1010 NOSIG RMK RWY11 30019KT

Closest aviation forecast (TAF) to Marki Airfield

Closest forecast is Ercan International Airport, 12.3 nm (22.8 km) NE. Retrieved 2021/04/20 12:00 UTC (2 hours ago):

TAF LCEN 201040Z 2012/2112 30022KT CAVOK BECMG 2017/2020 28012KT TAF LTAC 201040Z 2012/2112 25012KT 9999 SCT040 BECMG 2017/2020 VRB02KT CAVOK BECMG 2104/2106 SCT040